createdAt,value
2022-08-22T00:00:13.324Z,40.60
2022-08-22T00:02:46.653Z,47.20
2022-08-22T00:02:59.714Z,34.00
2022-08-22T00:03:02.739Z,33.80
2022-08-22T00:03:08.536Z,39.90
2022-08-22T00:03:15.188Z,40.50
2022-08-22T00:05:49.518Z,40.60
2022-08-22T00:08:20.058Z,40.50
2022-08-22T00:10:53.130Z,40.40
2022-08-22T00:13:27.321Z,40.50
2022-08-22T00:16:00.210Z,40.50
2022-08-22T00:18:32.008Z,40.40
2022-08-22T00:21:07.710Z,40.40
2022-08-22T00:23:37.872Z,40.50
2022-08-22T00:26:08.151Z,40.50
2022-08-22T00:28:37.212Z,40.50
2022-08-22T00:31:11.610Z,41.10
2022-08-22T00:33:42.132Z,40.30
2022-08-22T00:36:16.972Z,40.50
2022-08-22T00:38:48.172Z,40.30
2022-08-22T00:41:39.822Z,40.30
2022-08-22T00:44:41.068Z,40.10
2022-08-22T00:47:31.371Z,40.20
2022-08-22T00:50:26.214Z,40.10
2022-08-22T00:53:18.131Z,40.20
2022-08-22T00:55:55.079Z,40.20
2022-08-22T00:58:37.554Z,40.20
2022-08-22T01:01:07.015Z,40.20
2022-08-22T01:03:50.878Z,40.20
2022-08-22T01:06:24.642Z,40.40
2022-08-22T01:09:06.237Z,40.20
2022-08-22T01:11:49.312Z,40.20
2022-08-22T01:14:35.014Z,40.20
2022-08-22T01:17:32.692Z,40.20
2022-08-22T01:20:34.299Z,40.20
2022-08-22T01:23:33.453Z,40.10
2022-08-22T01:26:31.800Z,40.20
2022-08-22T01:29:39.359Z,40.20
2022-08-22T01:32:29.949Z,40.10
2022-08-22T01:35:06.656Z,40.10
2022-08-22T01:37:54.799Z,40.20
2022-08-22T01:41:12.039Z,40.10
2022-08-22T01:44:00.437Z,40.10
2022-08-22T01:46:35.139Z,40.30
2022-08-22T01:49:09.619Z,40.20
2022-08-22T01:51:41.137Z,40.30
2022-08-22T01:54:10.925Z,40.30
2022-08-22T01:56:41.422Z,40.30
2022-08-22T01:59:11.423Z,40.30
2022-08-22T02:02:04.403Z,40.40
2022-08-22T02:04:39.703Z,40.30
2022-08-22T02:07:13.200Z,40.20
2022-08-22T02:09:45.478Z,40.30
2022-08-22T02:12:27.366Z,40.20
2022-08-22T02:15:01.569Z,40.20
2022-08-22T02:17:31.472Z,40.30
2022-08-22T02:20:01.090Z,40.50
2022-08-22T02:22:35.916Z,40.50
2022-08-22T02:25:14.544Z,40.50
2022-08-22T02:27:50.232Z,40.50
2022-08-22T02:30:20.185Z,40.30
2022-08-22T02:32:55.511Z,40.40
2022-08-22T02:35:28.131Z,40.30
2022-08-22T02:38:06.234Z,40.40
2022-08-22T02:40:36.705Z,40.40
2022-08-22T02:43:09.968Z,40.30
2022-08-22T02:45:39.701Z,40.40
2022-08-22T02:48:14.212Z,40.40
2022-08-22T02:50:44.326Z,40.40
2022-08-22T02:53:16.015Z,40.40
2022-08-22T02:55:48.684Z,40.40
2022-08-22T02:58:23.475Z,40.50
2022-08-22T03:00:53.588Z,40.60
2022-08-22T03:03:24.840Z,40.70
2022-08-22T03:06:01.286Z,40.70
2022-08-22T03:08:32.152Z,40.80
2022-08-22T03:11:05.984Z,41.20
2022-08-22T03:13:41.300Z,40.90
2022-08-22T03:16:14.995Z,41.00
2022-08-22T03:18:46.133Z,41.00
2022-08-22T03:21:17.938Z,41.00
2022-08-22T03:23:49.600Z,41.00
2022-08-22T03:26:19.973Z,41.00
2022-08-22T03:28:58.983Z,41.20
2022-08-22T03:31:28.573Z,41.00
2022-08-22T03:34:21.386Z,41.10
2022-08-22T03:36:58.639Z,40.90
2022-08-22T03:39:40.605Z,41.00
2022-08-22T03:42:15.515Z,41.10
2022-08-22T03:45:19.529Z,41.00
2022-08-22T03:48:06.769Z,41.00
2022-08-22T03:50:55.394Z,41.10
2022-08-22T03:53:44.262Z,41.20
2022-08-22T03:56:26.939Z,41.10
2022-08-22T03:59:23.468Z,41.20
2022-08-22T04:02:31.471Z,41.20
2022-08-22T04:05:09.962Z,41.20
2022-08-22T04:08:00.085Z,41.20
2022-08-22T04:10:52.618Z,41.20
2022-08-22T04:13:52.799Z,41.30
2022-08-22T04:16:44.994Z,41.30
2022-08-22T04:19:26.349Z,41.30
2022-08-22T04:22:19.164Z,41.40
2022-08-22T04:24:52.858Z,41.30
2022-08-22T04:27:23.635Z,41.40
2022-08-22T04:29:56.317Z,41.30
2022-08-22T04:32:27.435Z,41.40
2022-08-22T04:34:57.075Z,41.50
2022-08-22T04:37:26.717Z,41.40
2022-08-22T04:39:56.958Z,41.40
2022-08-22T04:42:32.883Z,41.20
2022-08-22T04:45:06.290Z,41.20
2022-08-22T04:47:36.960Z,41.30
2022-08-22T04:50:07.225Z,41.20
2022-08-22T04:52:42.383Z,41.30
2022-08-22T04:55:16.201Z,41.30
2022-08-22T04:57:48.906Z,41.20
2022-08-22T05:00:18.467Z,41.30
2022-08-22T05:02:50.482Z,41.20
2022-08-22T05:05:20.460Z,41.30
2022-08-22T05:07:50.405Z,41.30
2022-08-22T05:10:21.551Z,41.20
2022-08-22T05:12:50.888Z,41.40
2022-08-22T05:15:23.129Z,41.30
2022-08-22T05:17:52.010Z,41.40
2022-08-22T05:20:22.091Z,41.40
2022-08-22T05:22:51.632Z,41.40
2022-08-22T05:25:20.638Z,41.30
2022-08-22T05:27:49.720Z,41.00
2022-08-22T05:30:24.615Z,41.30
2022-08-22T05:33:04.281Z,41.30
2022-08-22T05:35:36.541Z,41.30
2022-08-22T05:38:04.669Z,41.20
2022-08-22T05:40:32.898Z,41.20
2022-08-22T05:43:00.877Z,41.30
2022-08-22T05:45:30.628Z,41.20
2022-08-22T05:48:02.532Z,40.90
2022-08-22T05:50:34.138Z,41.10
2022-08-22T05:53:06.129Z,41.10
2022-08-22T05:55:45.661Z,41.20
2022-08-22T05:58:32.020Z,41.10
2022-08-22T06:01:06.048Z,41.00
2022-08-22T06:03:36.607Z,40.90
2022-08-22T06:06:07.685Z,41.00
2022-08-22T06:08:37.024Z,40.90
2022-08-22T06:11:07.492Z,40.80
2022-08-22T06:13:37.306Z,40.60
2022-08-22T06:16:12.555Z,40.60
2022-08-22T06:18:41.312Z,40.60
2022-08-22T06:21:11.234Z,40.70
2022-08-22T06:23:42.947Z,40.50
2022-08-22T06:26:20.503Z,40.60
2022-08-22T06:28:54.709Z,40.60
2022-08-22T06:31:26.901Z,40.60
2022-08-22T06:33:57.436Z,40.60
2022-08-22T06:36:34.713Z,40.60
2022-08-22T06:39:08.072Z,40.70
2022-08-22T06:41:41.416Z,40.50
2022-08-22T06:44:09.608Z,40.50
2022-08-22T06:46:39.434Z,40.80
2022-08-22T06:49:08.247Z,40.40
2022-08-22T06:51:37.001Z,40.40
2022-08-22T06:54:06.395Z,40.20
2022-08-22T06:56:36.726Z,40.20
2022-08-22T06:59:04.877Z,40.30
2022-08-22T07:01:36.279Z,40.20
2022-08-22T07:04:07.202Z,40.40
2022-08-22T07:06:36.332Z,40.30
2022-08-22T07:09:06.917Z,40.30
2022-08-22T07:11:37.781Z,40.20
2022-08-22T07:14:06.853Z,40.10
2022-08-22T07:16:35.686Z,40.20
2022-08-22T07:19:06.157Z,40.20
2022-08-22T07:21:43.881Z,40.00
2022-08-22T07:24:12.392Z,40.00
2022-08-22T07:26:49.094Z,40.00
2022-08-22T07:29:20.228Z,39.80
2022-08-22T07:31:54.745Z,39.50
2022-08-22T07:34:32.391Z,39.60
2022-08-22T07:37:01.441Z,39.40
2022-08-22T07:39:31.769Z,39.40
2022-08-22T07:42:06.976Z,39.10
2022-08-22T07:44:38.601Z,39.20
2022-08-22T07:47:08.601Z,38.90
2022-08-22T07:49:39.558Z,38.60
2022-08-22T07:52:18.216Z,38.70
2022-08-22T07:55:02.634Z,38.50
2022-08-22T07:57:32.311Z,38.40
2022-08-22T08:00:01.785Z,38.40
2022-08-22T08:02:29.884Z,38.10
2022-08-22T08:05:00.021Z,38.10
2022-08-22T08:07:29.124Z,38.40
2022-08-22T08:09:59.555Z,38.60
2022-08-22T08:12:30.875Z,38.90
2022-08-22T08:14:58.951Z,39.00
2022-08-22T08:17:32.045Z,39.10
2022-08-22T08:20:03.352Z,39.40
2022-08-22T08:22:31.283Z,39.20
2022-08-22T08:24:59.828Z,39.00
2022-08-22T08:27:50.172Z,38.80
2022-08-22T08:30:20.373Z,38.50
2022-08-22T08:32:54.041Z,38.20
2022-08-22T08:35:29.915Z,38.20
2022-08-22T08:38:11.671Z,38.20
2022-08-22T08:40:55.843Z,38.40
2022-08-22T08:43:28.319Z,38.90
2022-08-22T08:46:08.109Z,38.80
2022-08-22T08:48:53.178Z,38.80
2022-08-22T08:51:54.579Z,38.60
2022-08-22T08:54:43.445Z,39.70
2022-08-22T08:57:21.357Z,40.30
2022-08-22T08:59:53.524Z,42.00
2022-08-22T09:02:55.375Z,42.10
2022-08-22T09:05:48.684Z,42.60
2022-08-22T09:08:55.532Z,42.20
2022-08-22T09:11:33.873Z,42.00
2022-08-22T09:14:12.084Z,42.10
2022-08-22T09:16:51.287Z,42.20
2022-08-22T09:19:52.190Z,42.20
2022-08-22T09:22:50.234Z,41.40
2022-08-22T09:25:25.711Z,43.10
2022-08-22T09:27:58.234Z,42.50
2022-08-22T09:30:31.444Z,42.10
2022-08-22T09:33:01.653Z,41.00
2022-08-22T09:35:39.722Z,40.70
2022-08-22T09:38:25.975Z,40.30
2022-08-22T09:41:00.359Z,40.10
2022-08-22T09:43:35.096Z,40.00
2022-08-22T09:46:09.926Z,40.50
2022-08-22T09:48:43.079Z,41.50
2022-08-22T09:51:32.307Z,41.50
2022-08-22T09:54:19.050Z,41.50
2022-08-22T09:56:58.409Z,40.80
2022-08-22T09:59:33.630Z,40.60
2022-08-22T10:02:06.028Z,39.80
2022-08-22T10:04:47.600Z,41.00
2022-08-22T10:07:46.866Z,40.60
2022-08-22T10:10:30.587Z,40.40
2022-08-22T10:13:04.059Z,40.20
2022-08-22T10:15:40.242Z,41.10
2022-08-22T10:18:15.090Z,40.90
2022-08-22T10:20:50.884Z,40.70
2022-08-22T10:23:21.049Z,40.40
2022-08-22T10:25:50.978Z,40.70
2022-08-22T10:28:32.669Z,41.10
2022-08-22T10:31:12.739Z,40.70
2022-08-22T10:33:44.375Z,40.40
2022-08-22T10:36:14.122Z,40.10
2022-08-22T10:38:46.806Z,40.10
2022-08-22T10:41:19.354Z,40.90
2022-08-22T10:43:56.408Z,40.20
2022-08-22T10:46:32.043Z,39.80
2022-08-22T10:49:07.791Z,39.80
2022-08-22T10:51:40.739Z,39.40
2022-08-22T10:54:20.949Z,38.60
2022-08-22T10:56:52.539Z,38.80
2022-08-22T10:59:37.995Z,39.90
2022-08-22T11:02:27.570Z,39.50
2022-08-22T11:05:08.227Z,39.70
2022-08-22T11:07:48.644Z,39.70
2022-08-22T11:10:23.853Z,40.20
2022-08-22T11:12:57.904Z,40.00
2022-08-22T11:15:56.251Z,40.10
2022-08-22T11:18:30.475Z,39.10
2022-08-22T11:21:00.342Z,39.90
2022-08-22T11:23:38.629Z,39.40
2022-08-22T11:26:13.432Z,39.60
2022-08-22T11:29:02.748Z,38.90
2022-08-22T11:31:51.565Z,39.20
2022-08-22T11:34:27.282Z,39.20
2022-08-22T11:36:56.883Z,39.30
2022-08-22T11:39:26.019Z,39.40
2022-08-22T11:41:59.895Z,39.60
2022-08-22T11:44:31.275Z,39.40
2022-08-22T11:47:01.668Z,39.70
2022-08-22T11:49:43.485Z,39.60
2022-08-22T11:52:14.529Z,40.60
2022-08-22T11:55:10.068Z,40.30
2022-08-22T11:57:41.777Z,39.80
2022-08-22T12:00:23.170Z,39.90
2022-08-22T12:03:35.475Z,40.00
2022-08-22T12:06:07.727Z,40.30
2022-08-22T12:09:10.977Z,39.80
2022-08-22T12:11:44.015Z,40.20
2022-08-22T12:14:18.777Z,40.10
2022-08-22T12:16:55.006Z,40.00
2022-08-22T12:19:27.346Z,38.70
2022-08-22T12:22:31.056Z,38.20
2022-08-22T12:25:07.149Z,37.80
2022-08-22T12:28:07.545Z,38.00
2022-08-22T12:30:38.742Z,38.10
2022-08-22T12:33:29.898Z,38.00
2022-08-22T12:36:18.262Z,38.70
2022-08-22T12:38:57.173Z,38.90
2022-08-22T12:41:46.737Z,39.00
2022-08-22T12:44:28.813Z,38.80
2022-08-22T12:47:11.860Z,38.40
2022-08-22T12:49:49.924Z,37.60
2022-08-22T12:52:29.014Z,37.90
2022-08-22T12:55:18.891Z,37.80
2022-08-22T12:57:50.530Z,38.80
2022-08-22T13:00:29.425Z,38.30
2022-08-22T13:02:57.704Z,37.50
2022-08-22T13:05:26.887Z,37.30
2022-08-22T13:08:01.298Z,38.00
2022-08-22T13:10:52.255Z,38.50
2022-08-22T13:13:36.575Z,38.30
2022-08-22T13:16:07.567Z,38.40
2022-08-22T13:18:38.381Z,38.80
2022-08-22T13:21:16.433Z,38.90
2022-08-22T13:23:50.783Z,38.60
2022-08-22T13:26:33.098Z,39.00
2022-08-22T13:31:55.156Z,39.00
2022-08-22T13:34:39.548Z,39.90
2022-08-22T13:37:08.335Z,40.50
2022-08-22T13:39:43.620Z,41.00
2022-08-22T13:42:27.580Z,41.60
2022-08-22T13:45:00.203Z,41.70
2022-08-22T13:47:34.436Z,41.50
2022-08-22T13:50:08.359Z,41.20
2022-08-22T13:52:38.872Z,40.90
2022-08-22T13:55:19.638Z,40.80
2022-08-22T13:57:51.979Z,40.00
2022-08-22T14:01:08.479Z,38.50
2022-08-22T14:03:40.705Z,38.10
2022-08-22T14:06:37.086Z,37.80
2022-08-22T14:09:05.796Z,37.90
2022-08-22T14:11:42.058Z,38.00
2022-08-22T14:14:10.288Z,37.90
2022-08-22T14:16:46.428Z,38.60
2022-08-22T14:19:17.714Z,38.60
2022-08-22T14:21:47.260Z,39.80
2022-08-22T14:24:20.312Z,39.60
2022-08-22T14:26:57.706Z,40.20
2022-08-22T14:29:26.315Z,41.00
2022-08-22T14:32:04.350Z,41.20
2022-08-22T14:34:33.422Z,41.20
2022-08-22T14:37:04.079Z,41.20
2022-08-22T14:39:36.921Z,41.00
2022-08-22T14:42:15.161Z,41.40
2022-08-22T14:44:48.748Z,41.20
2022-08-22T14:47:55.060Z,41.40
2022-08-22T14:50:36.655Z,39.80
2022-08-22T14:53:06.391Z,39.60
2022-08-22T14:55:36.246Z,39.10
2022-08-22T14:58:08.746Z,39.00
2022-08-22T15:00:38.112Z,39.20
2022-08-22T15:03:11.236Z,39.60
2022-08-22T15:05:47.009Z,40.10
2022-08-22T15:08:27.554Z,39.70
2022-08-22T15:11:14.199Z,39.40
2022-08-22T15:13:52.990Z,39.60
2022-08-22T15:16:22.096Z,39.70
2022-08-22T15:18:52.123Z,39.40
2022-08-22T15:21:24.345Z,39.10
2022-08-22T15:23:54.101Z,39.20
2022-08-22T15:26:28.236Z,38.80
2022-08-22T15:29:09.498Z,39.30
2022-08-22T15:31:41.530Z,38.80
2022-08-22T15:34:18.042Z,38.80
2022-08-22T15:37:10.989Z,38.80
2022-08-22T15:40:03.039Z,39.00
2022-08-22T15:42:34.501Z,39.30
2022-08-22T15:45:03.726Z,39.20
2022-08-22T15:47:36.235Z,39.50
2022-08-22T15:50:06.846Z,40.10
2022-08-22T15:52:52.682Z,40.80
2022-08-22T15:55:28.038Z,41.30
2022-08-22T15:58:07.780Z,41.20
2022-08-22T16:00:43.498Z,41.40
2022-08-22T16:03:14.395Z,41.30
2022-08-22T16:05:53.178Z,41.30
2022-08-22T16:08:25.576Z,41.40
2022-08-22T16:10:56.076Z,41.00
2022-08-22T16:13:39.031Z,40.50
2022-08-22T16:16:10.829Z,40.20
2022-08-22T16:19:19.920Z,40.50
2022-08-22T16:22:13.469Z,39.90
2022-08-22T16:25:06.049Z,39.80
2022-08-22T16:27:33.992Z,40.20
2022-08-22T16:30:12.050Z,39.40
2022-08-22T16:32:41.510Z,39.60
2022-08-22T16:35:09.284Z,39.40
2022-08-22T16:37:47.818Z,39.20
2022-08-22T16:40:26.149Z,39.20
2022-08-22T16:43:13.088Z,39.10
2022-08-22T16:45:42.120Z,38.80
2022-08-22T16:48:36.115Z,38.80
2022-08-22T16:51:12.991Z,38.80
2022-08-22T16:54:04.357Z,38.90
2022-08-22T16:56:33.903Z,38.80
2022-08-22T16:59:37.281Z,38.70
2022-08-22T17:02:36.350Z,38.60
2022-08-22T17:05:12.129Z,38.50
2022-08-22T17:07:51.091Z,38.70
2022-08-22T17:10:27.626Z,38.80
2022-08-22T17:13:04.051Z,38.60
2022-08-22T17:15:35.351Z,39.80
2022-08-22T17:18:12.353Z,39.60
2022-08-22T17:20:45.657Z,39.30
2022-08-22T17:23:18.241Z,39.60
2022-08-22T17:25:53.041Z,39.70
2022-08-22T17:28:24.302Z,39.70
2022-08-22T17:30:57.205Z,39.40
2022-08-22T17:33:41.760Z,40.00
2022-08-22T17:36:26.421Z,40.20
2022-08-22T17:39:10.141Z,40.00
2022-08-22T17:41:40.558Z,39.80
2022-08-22T17:44:12.011Z,40.30
2022-08-22T17:46:51.086Z,40.50
2022-08-22T17:49:26.917Z,40.60
2022-08-22T17:51:58.779Z,40.80
2022-08-22T17:54:31.468Z,40.70
2022-08-22T17:57:05.713Z,41.20
2022-08-22T17:59:37.672Z,41.40
2022-08-22T18:02:11.145Z,41.20
2022-08-22T18:04:45.616Z,41.80
2022-08-22T18:07:46.155Z,41.60
2022-08-22T18:10:21.625Z,42.10
2022-08-22T18:12:54.451Z,42.60
2022-08-22T18:15:24.426Z,42.90
2022-08-22T18:17:53.571Z,43.20
2022-08-22T18:20:23.971Z,43.60
2022-08-22T18:22:55.020Z,43.80
2022-08-22T18:25:35.705Z,43.50
2022-08-22T18:28:06.544Z,43.60
2022-08-22T18:30:36.806Z,43.50
2022-08-22T18:33:08.644Z,44.20
2022-08-22T18:35:42.429Z,44.40
2022-08-22T18:38:19.144Z,44.90
2022-08-22T18:40:50.210Z,45.10
2022-08-22T18:43:23.852Z,44.60
2022-08-22T18:46:00.153Z,45.30
2022-08-22T18:48:37.504Z,46.00
2022-08-22T18:51:21.259Z,45.50
2022-08-22T18:53:55.187Z,45.60
2022-08-22T18:56:45.890Z,45.80
2022-08-22T18:59:47.700Z,45.80
2022-08-22T19:02:33.563Z,46.10
2022-08-22T19:05:21.325Z,46.30
2022-08-22T19:07:57.687Z,46.90
2022-08-22T19:10:40.201Z,47.00
2022-08-22T19:13:22.589Z,46.80
2022-08-22T19:15:57.247Z,46.80
2022-08-22T19:18:30.421Z,47.60
2022-08-22T19:21:37.605Z,48.10
2022-08-22T19:24:07.646Z,47.80
2022-08-22T19:26:39.320Z,47.80
2022-08-22T19:29:28.546Z,47.90
2022-08-22T19:31:57.683Z,48.40
2022-08-22T19:34:37.234Z,49.00
2022-08-22T19:37:31.034Z,48.80
2022-08-22T19:40:01.963Z,49.40
2022-08-22T19:42:36.469Z,49.30
2022-08-22T19:45:18.764Z,50.30
2022-08-22T19:47:55.055Z,50.10
2022-08-22T19:50:31.074Z,50.60
2022-08-22T19:53:07.306Z,51.30
2022-08-22T19:55:45.166Z,51.40
2022-08-22T19:58:17.269Z,51.20
2022-08-22T20:00:53.641Z,50.80
2022-08-22T20:03:31.116Z,51.20
2022-08-22T20:06:05.105Z,52.00
2022-08-22T20:08:41.432Z,52.20
2022-08-22T20:11:19.173Z,50.90
2022-08-22T20:13:48.734Z,51.40
2022-08-22T20:16:19.194Z,51.60
2022-08-22T20:19:15.044Z,51.50
2022-08-22T20:21:53.222Z,51.50
2022-08-22T20:24:23.870Z,52.10
2022-08-22T20:27:12.707Z,52.60
2022-08-22T20:29:45.230Z,52.20
2022-08-22T20:32:13.094Z,52.20
2022-08-22T20:34:41.064Z,51.60
2022-08-22T20:37:31.973Z,51.70
2022-08-22T20:40:01.762Z,52.00
2022-08-22T20:42:30.070Z,52.10
2022-08-22T20:45:00.140Z,52.20
2022-08-22T20:47:38.058Z,51.80
2022-08-22T20:50:11.949Z,53.00
2022-08-22T20:52:41.596Z,52.20
2022-08-22T20:55:13.272Z,52.30
2022-08-22T20:57:46.149Z,52.50
2022-08-22T21:00:18.259Z,52.50
2022-08-22T21:02:49.076Z,51.80
2022-08-22T21:05:22.427Z,52.50
2022-08-22T21:08:02.780Z,52.60
2022-08-22T21:10:49.113Z,51.90
2022-08-22T21:13:19.664Z,53.20
2022-08-22T21:15:50.480Z,52.80
2022-08-22T21:18:26.943Z,53.10
2022-08-22T21:20:55.043Z,52.30
2022-08-22T21:23:22.919Z,52.50
2022-08-22T21:25:56.638Z,52.40
2022-08-22T21:28:32.994Z,52.60
2022-08-22T21:31:09.935Z,52.40
2022-08-22T21:33:41.609Z,52.30
2022-08-22T21:36:10.524Z,52.40
2022-08-22T21:38:38.462Z,52.70
2022-08-22T21:41:06.685Z,53.40
2022-08-22T21:43:36.861Z,52.90
2022-08-22T21:46:06.917Z,52.50
2022-08-22T21:48:37.572Z,53.00
2022-08-22T21:51:25.381Z,52.70
2022-08-22T21:53:56.057Z,53.00
2022-08-22T21:56:41.036Z,52.60
2022-08-22T21:59:20.171Z,53.40
2022-08-22T22:01:55.433Z,54.10
2022-08-22T22:04:23.475Z,53.60
2022-08-22T22:06:51.244Z,53.40
2022-08-22T22:09:19.148Z,53.20
2022-08-22T22:11:47.003Z,53.10
2022-08-22T22:14:15.014Z,53.60
2022-08-22T22:16:42.993Z,54.20
2022-08-22T22:19:12.447Z,53.80
2022-08-22T22:21:40.389Z,53.50
2022-08-22T22:24:08.530Z,53.30
2022-08-22T22:26:36.436Z,53.10
2022-08-22T22:29:04.660Z,52.80
2022-08-22T22:31:32.642Z,52.60
2022-08-22T22:34:02.009Z,52.20
2022-08-22T22:36:31.871Z,54.20
2022-08-22T22:38:59.894Z,53.40
2022-08-22T22:41:27.901Z,53.80
2022-08-22T22:43:56.014Z,53.20
2022-08-22T22:46:24.213Z,54.30
2022-08-22T22:48:52.247Z,53.00
2022-08-22T22:51:20.369Z,54.10
2022-08-22T22:53:49.869Z,53.80
2022-08-22T22:56:21.534Z,54.00
2022-08-22T22:58:49.700Z,53.80
2022-08-22T23:01:19.365Z,53.70
2022-08-22T23:03:47.440Z,53.60
2022-08-22T23:06:16.687Z,54.20
2022-08-22T23:08:44.712Z,53.80
2022-08-22T23:11:15.397Z,53.80
2022-08-22T23:13:43.489Z,53.60
2022-08-22T23:16:12.697Z,53.40
2022-08-22T23:18:40.910Z,53.30
2022-08-22T23:21:13.153Z,53.30
2022-08-22T23:23:41.066Z,53.40
2022-08-22T23:26:08.915Z,54.70
2022-08-22T23:28:38.232Z,54.80
2022-08-22T23:31:13.858Z,54.90
2022-08-22T23:33:41.862Z,54.50
2022-08-22T23:36:13.923Z,55.00
2022-08-22T23:38:42.003Z,54.70
2022-08-22T23:41:10.190Z,54.40
2022-08-22T23:43:42.220Z,54.90
2022-08-22T23:46:10.184Z,53.70
2022-08-22T23:48:38.259Z,53.70
2022-08-22T23:51:06.764Z,54.00
2022-08-22T23:53:34.878Z,53.50
2022-08-22T23:56:10.557Z,52.80
2022-08-22T23:58:49.660Z,52.70
